createdAt,value
2019-03-27T00:00:05.233Z,1030.86
2019-03-27T00:01:02.036Z,1030.86
2019-03-27T00:02:02.282Z,1030.91
2019-03-27T00:03:02.618Z,1030.91
2019-03-27T00:04:01.835Z,1030.91
2019-03-27T00:05:02.109Z,1030.91
2019-03-27T00:06:02.302Z,1030.79
2019-03-27T00:07:01.949Z,1030.79
2019-03-27T00:08:02.305Z,1030.79
2019-03-27T00:09:02.430Z,1030.79
2019-03-27T00:10:01.747Z,1030.64
2019-03-27T00:11:01.851Z,1030.64
2019-03-27T00:12:02.075Z,1030.64
2019-03-27T00:13:02.417Z,1030.64
2019-03-27T00:14:02.464Z,1030.75
2019-03-27T00:15:13.997Z,1030.75
2019-03-27T00:16:02.197Z,1030.75
2019-03-27T00:17:02.289Z,1030.75
2019-03-27T00:18:02.622Z,1030.84
2019-03-27T00:19:01.747Z,1030.84
2019-03-27T00:20:01.964Z,1030.84
2019-03-27T00:21:02.084Z,1030.84
2019-03-27T00:22:02.313Z,1030.65
2019-03-27T00:23:02.564Z,1030.65
2019-03-27T00:24:01.761Z,1030.65
2019-03-27T00:25:01.981Z,1030.65
2019-03-27T00:26:02.130Z,1030.7
2019-03-27T00:27:02.393Z,1030.7
2019-03-27T00:28:02.606Z,1030.7
2019-03-27T00:29:01.854Z,1030.7
2019-03-27T00:30:02.178Z,1030.56
2019-03-27T00:31:02.320Z,1030.56
2019-03-27T00:32:02.171Z,1030.56
2019-03-27T00:33:02.408Z,1030.56
2019-03-27T00:34:02.607Z,1030.65
2019-03-27T00:35:02.204Z,1030.65
2019-03-27T00:36:02.151Z,1030.65
2019-03-27T00:37:02.371Z,1030.65
2019-03-27T00:38:02.649Z,1030.59
2019-03-27T00:39:01.768Z,1030.59
2019-03-27T00:40:02.026Z,1030.59
2019-03-27T00:41:02.372Z,1030.59
2019-03-27T00:42:02.444Z,1030.68
2019-03-27T00:43:01.727Z,1030.68
2019-03-27T00:44:01.892Z,1030.68
2019-03-27T00:45:02.301Z,1030.68
2019-03-27T00:46:02.491Z,1030.74
2019-03-27T00:47:01.665Z,1030.74
2019-03-27T00:48:01.886Z,1030.74
2019-03-27T00:49:02.094Z,1030.74
2019-03-27T00:50:02.247Z,1030.78
2019-03-27T00:51:02.482Z,1030.78
2019-03-27T00:52:01.605Z,1030.78
2019-03-27T00:53:01.768Z,1030.78
2019-03-27T00:54:02.018Z,1030.81
2019-03-27T00:55:02.312Z,1030.81
2019-03-27T00:56:02.584Z,1030.81
2019-03-27T00:57:01.806Z,1030.81
2019-03-27T00:58:02.020Z,1030.73
2019-03-27T00:59:02.175Z,1030.73
2019-03-27T01:00:03.586Z,1030.73
2019-03-27T01:01:02.413Z,1030.73
2019-03-27T01:02:02.637Z,1030.72
2019-03-27T01:03:01.789Z,1030.72
2019-03-27T01:04:02.019Z,1030.72
2019-03-27T01:05:02.219Z,1030.72
2019-03-27T01:06:02.435Z,1030.82
2019-03-27T01:07:01.707Z,1030.82
2019-03-27T01:08:01.916Z,1030.82
2019-03-27T01:09:02.103Z,1030.82
2019-03-27T01:10:02.357Z,1030.87
2019-03-27T01:11:02.571Z,1030.87
2019-03-27T01:12:01.864Z,1030.87
2019-03-27T01:13:02.131Z,1030.87
2019-03-27T01:14:02.300Z,1030.75
2019-03-27T01:15:02.604Z,1030.75
2019-03-27T01:16:01.856Z,1030.75
2019-03-27T01:17:02.064Z,1030.75
2019-03-27T01:18:01.924Z,1030.71
2019-03-27T01:19:02.156Z,1030.71
2019-03-27T01:20:02.419Z,1030.71
2019-03-27T01:21:01.721Z,1030.71
2019-03-27T01:22:01.980Z,1030.77
2019-03-27T01:23:02.148Z,1030.77
2019-03-27T01:24:02.427Z,1030.77
2019-03-27T01:25:01.797Z,1030.77
2019-03-27T01:26:01.978Z,1030.7
2019-03-27T01:27:02.191Z,1030.7
2019-03-27T01:28:02.381Z,1030.7
2019-03-27T01:29:02.573Z,1030.7
2019-03-27T01:30:02.263Z,1030.67
2019-03-27T01:31:02.522Z,1030.67
2019-03-27T01:32:01.840Z,1030.67
2019-03-27T01:33:02.037Z,1030.67
2019-03-27T01:34:02.292Z,1030.71
2019-03-27T01:35:02.530Z,1030.71
2019-03-27T01:36:02.453Z,1030.71
2019-03-27T01:37:01.770Z,1030.71
2019-03-27T01:38:01.996Z,1030.7
2019-03-27T01:39:02.225Z,1030.7
2019-03-27T01:40:02.433Z,1030.7
2019-03-27T01:41:02.638Z,1030.72
2019-03-27T01:42:01.980Z,1030.72
2019-03-27T01:43:02.057Z,1030.72
2019-03-27T01:44:02.286Z,1030.72
2019-03-27T01:45:02.645Z,1030.7
2019-03-27T01:46:01.807Z,1030.7
2019-03-27T01:47:02.047Z,1030.7
2019-03-27T01:48:02.245Z,1030.7
2019-03-27T01:49:02.485Z,1030.7
2019-03-27T01:50:01.789Z,1030.7
2019-03-27T01:51:01.995Z,1030.7
2019-03-27T01:52:02.334Z,1030.7
2019-03-27T01:53:02.543Z,1030.85
2019-03-27T01:54:01.724Z,1030.85
2019-03-27T01:55:01.978Z,1030.85
2019-03-27T01:56:02.177Z,1030.85
2019-03-27T01:57:02.402Z,1030.7
2019-03-27T01:58:02.691Z,1030.7
2019-03-27T01:59:01.806Z,1030.7
2019-03-27T02:00:04.825Z,1030.7
2019-03-27T02:01:01.710Z,1030.78
2019-03-27T02:02:01.889Z,1030.78
2019-03-27T02:03:02.180Z,1030.78
2019-03-27T02:04:02.337Z,1030.78
2019-03-27T02:05:02.578Z,1030.65
2019-03-27T02:06:01.801Z,1030.65
2019-03-27T02:07:01.986Z,1030.65
2019-03-27T02:08:02.260Z,1030.65
2019-03-27T02:09:02.460Z,1030.62
2019-03-27T02:10:01.711Z,1030.62
2019-03-27T02:11:01.878Z,1030.62
2019-03-27T02:12:02.091Z,1030.62
2019-03-27T02:13:01.952Z,1030.61
2019-03-27T02:14:02.080Z,1030.61
2019-03-27T02:15:02.302Z,1030.61
2019-03-27T02:16:07.774Z,1030.61
2019-03-27T02:17:01.747Z,1030.57
2019-03-27T02:18:02.037Z,1030.57
2019-03-27T02:19:02.228Z,1030.57
2019-03-27T02:20:02.520Z,1030.57
2019-03-27T02:21:01.731Z,1030.46
2019-03-27T02:22:01.900Z,1030.46
2019-03-27T02:23:02.135Z,1030.46
2019-03-27T02:24:02.305Z,1030.46
2019-03-27T02:25:06.126Z,1030.55
2019-03-27T02:26:01.819Z,1030.55
2019-03-27T02:27:01.990Z,1030.55
2019-03-27T02:28:02.282Z,1030.55
2019-03-27T02:29:02.497Z,1030.51
2019-03-27T02:30:01.880Z,1030.51
2019-03-27T02:31:02.172Z,1030.51
2019-03-27T02:32:02.313Z,1030.51
2019-03-27T02:33:02.509Z,1030.57
2019-03-27T02:34:01.752Z,1030.57
2019-03-27T02:35:02.134Z,1030.57
2019-03-27T02:36:02.300Z,1030.57
2019-03-27T02:37:02.630Z,1030.58
2019-03-27T02:38:02.550Z,1030.58
2019-03-27T02:39:01.769Z,1030.58
2019-03-27T02:40:02.038Z,1030.58
2019-03-27T02:41:02.210Z,1030.62
2019-03-27T02:42:02.483Z,1030.62
2019-03-27T02:43:01.651Z,1030.62
2019-03-27T02:44:01.872Z,1030.62
2019-03-27T02:45:02.217Z,1030.57
2019-03-27T02:46:02.573Z,1030.57
2019-03-27T02:47:01.775Z,1030.57
2019-03-27T02:48:01.905Z,1030.57
2019-03-27T02:49:02.201Z,1030.61
2019-03-27T02:50:02.519Z,1030.61
2019-03-27T02:51:01.672Z,1030.61
2019-03-27T02:52:01.909Z,1030.61
2019-03-27T02:53:02.151Z,1030.56
2019-03-27T02:54:02.373Z,1030.56
2019-03-27T02:55:02.631Z,1030.56
2019-03-27T02:56:01.954Z,1030.56
2019-03-27T02:57:02.131Z,1030.56
2019-03-27T02:58:02.393Z,1030.56
2019-03-27T02:59:01.673Z,1030.56
2019-03-27T03:00:04.231Z,1030.56
2019-03-27T03:01:02.057Z,1030.49
2019-03-27T03:02:02.305Z,1030.49
2019-03-27T03:03:02.571Z,1030.49
2019-03-27T03:04:01.862Z,1030.49
2019-03-27T03:05:02.057Z,1030.53
2019-03-27T03:06:02.208Z,1030.53
2019-03-27T03:07:02.514Z,1030.53
2019-03-27T03:08:01.840Z,1030.53
2019-03-27T03:09:02.023Z,1030.51
2019-03-27T03:10:02.511Z,1030.51
2019-03-27T03:11:01.853Z,1030.51
2019-03-27T03:12:02.028Z,1030.51
2019-03-27T03:13:02.263Z,1030.57
2019-03-27T03:14:02.422Z,1030.57
2019-03-27T03:15:01.777Z,1030.57
2019-03-27T03:16:02.071Z,1030.57
2019-03-27T03:17:02.063Z,1030.44
2019-03-27T03:18:02.269Z,1030.44
2019-03-27T03:19:02.545Z,1030.44
2019-03-27T03:20:01.767Z,1030.45
2019-03-27T03:21:01.997Z,1030.45
2019-03-27T03:22:02.137Z,1030.45
2019-03-27T03:23:01.825Z,1030.45
2019-03-27T03:24:02.043Z,1030.56
2019-03-27T03:25:02.346Z,1030.56
2019-03-27T03:26:02.614Z,1030.56
2019-03-27T03:27:02.454Z,1030.56
2019-03-27T03:28:02.621Z,1030.51
2019-03-27T03:29:01.842Z,1030.51
2019-03-27T03:30:02.182Z,1030.51
2019-03-27T03:31:02.548Z,1030.51
2019-03-27T03:32:02.622Z,1030.56
2019-03-27T03:33:01.758Z,1030.56
2019-03-27T03:34:01.911Z,1030.56
2019-03-27T03:35:02.436Z,1030.56
2019-03-27T03:36:02.551Z,1030.57
2019-03-27T03:37:01.721Z,1030.57
2019-03-27T03:38:01.859Z,1030.57
2019-03-27T03:39:02.074Z,1030.57
2019-03-27T03:40:02.280Z,1030.62
2019-03-27T03:41:02.491Z,1030.62
2019-03-27T03:42:01.694Z,1030.62
2019-03-27T03:43:01.949Z,1030.62
2019-03-27T03:44:02.255Z,1030.55
2019-03-27T03:45:02.516Z,1030.55
2019-03-27T03:46:01.680Z,1030.55
2019-03-27T03:47:02.009Z,1030.55
2019-03-27T03:48:02.231Z,1030.54
2019-03-27T03:49:02.459Z,1030.54
2019-03-27T03:50:02.651Z,1030.54
2019-03-27T03:51:01.876Z,1030.54
2019-03-27T03:52:02.090Z,1030.63
2019-03-27T03:53:02.282Z,1030.63
2019-03-27T03:54:02.589Z,1030.63
2019-03-27T03:55:01.667Z,1030.63
2019-03-27T03:56:01.952Z,1030.6
2019-03-27T03:57:02.108Z,1030.6
2019-03-27T03:58:02.342Z,1030.6
2019-03-27T03:59:02.664Z,1030.6
2019-03-27T04:00:01.928Z,1030.7
2019-03-27T04:01:02.002Z,1030.7
2019-03-27T04:02:02.309Z,1030.7
2019-03-27T04:03:02.335Z,1030.7
2019-03-27T04:04:02.601Z,1030.61
2019-03-27T04:05:01.850Z,1030.61
2019-03-27T04:06:02.079Z,1030.61
2019-03-27T04:07:02.305Z,1030.61
2019-03-27T04:08:02.638Z,1030.71
2019-03-27T04:09:01.802Z,1030.71
2019-03-27T04:10:02.019Z,1030.71
2019-03-27T04:11:02.240Z,1030.71
2019-03-27T04:12:02.514Z,1030.76
2019-03-27T04:13:01.663Z,1030.76
2019-03-27T04:14:01.871Z,1030.76
2019-03-27T04:15:02.291Z,1030.76
2019-03-27T04:16:02.386Z,1030.7
2019-03-27T04:17:18.172Z,1030.7
2019-03-27T04:18:01.866Z,1030.7
2019-03-27T04:19:02.125Z,1030.7
2019-03-27T04:20:02.569Z,1030.71
2019-03-27T04:21:01.853Z,1030.71
2019-03-27T04:22:02.095Z,1030.71
2019-03-27T04:23:02.152Z,1030.71
2019-03-27T04:24:02.445Z,1030.83
2019-03-27T04:25:02.731Z,1030.83
2019-03-27T04:26:11.007Z,1030.83
2019-03-27T04:27:02.148Z,1030.83
2019-03-27T04:28:02.416Z,1030.87
2019-03-27T04:29:02.606Z,1030.87
2019-03-27T04:30:01.911Z,1030.87
2019-03-27T04:31:02.008Z,1030.87
2019-03-27T04:32:02.310Z,1030.92
2019-03-27T04:33:02.487Z,1030.92
2019-03-27T04:34:01.670Z,1030.92
2019-03-27T04:35:01.904Z,1030.92
2019-03-27T04:36:02.196Z,1030.93
2019-03-27T04:37:02.547Z,1030.93
2019-03-27T04:38:01.666Z,1030.93
2019-03-27T04:39:01.898Z,1030.93
2019-03-27T04:40:02.167Z,1030.88
2019-03-27T04:41:02.396Z,1030.88
2019-03-27T04:42:01.706Z,1030.88
2019-03-27T04:43:01.645Z,1030.88
2019-03-27T04:44:01.855Z,1030.82
2019-03-27T04:45:02.204Z,1030.82
2019-03-27T04:46:02.404Z,1030.82
2019-03-27T04:47:02.667Z,1030.82
2019-03-27T04:48:01.849Z,1030.88
2019-03-27T04:49:02.005Z,1030.88
2019-03-27T04:50:02.428Z,1030.88
2019-03-27T04:51:02.539Z,1030.88
2019-03-27T04:52:01.715Z,1030.94
2019-03-27T04:53:02.016Z,1030.94
2019-03-27T04:54:02.178Z,1030.94
2019-03-27T04:55:02.664Z,1030.94
2019-03-27T04:56:01.811Z,1031
2019-03-27T04:57:02.070Z,1031
2019-03-27T04:58:02.292Z,1031
2019-03-27T04:59:02.543Z,1031
2019-03-27T05:00:04.084Z,1030.94
2019-03-27T05:01:01.850Z,1030.94
2019-03-27T05:02:02.035Z,1030.94
2019-03-27T05:03:02.213Z,1030.93
2019-03-27T05:04:02.469Z,1030.93
2019-03-27T05:05:01.762Z,1030.93
2019-03-27T05:06:02.039Z,1030.93
2019-03-27T05:07:02.201Z,1030.9
2019-03-27T05:08:02.507Z,1030.9
2019-03-27T05:09:01.725Z,1030.9
2019-03-27T05:10:01.954Z,1030.9
2019-03-27T05:11:02.109Z,1030.89
2019-03-27T05:12:02.345Z,1030.89
2019-03-27T05:13:02.552Z,1030.89
2019-03-27T05:14:01.826Z,1030.89
2019-03-27T05:15:01.993Z,1031.06
2019-03-27T05:16:02.187Z,1031.06
2019-03-27T05:17:02.493Z,1031.06
2019-03-27T05:18:01.677Z,1031.06
2019-03-27T05:19:01.999Z,1031.01
2019-03-27T05:20:02.230Z,1031.01
2019-03-27T05:21:02.443Z,1031.01
2019-03-27T05:22:01.673Z,1031.01
2019-03-27T05:23:01.938Z,1031.08
2019-03-27T05:24:02.079Z,1031.08
2019-03-27T05:25:02.358Z,1031.08
2019-03-27T05:26:02.504Z,1031.08
2019-03-27T05:27:01.716Z,1031.06
2019-03-27T05:28:01.960Z,1031.06
2019-03-27T05:29:02.290Z,1031.06
2019-03-27T05:30:02.456Z,1031.06
2019-03-27T05:31:01.687Z,1031.12
2019-03-27T05:32:01.947Z,1031.12
2019-03-27T05:33:02.158Z,1031.12
2019-03-27T05:34:02.398Z,1031.12
2019-03-27T05:35:02.641Z,1031.15
2019-03-27T05:36:01.852Z,1031.15
2019-03-27T05:37:02.057Z,1031.15
2019-03-27T05:38:02.296Z,1031.15
2019-03-27T05:39:02.538Z,1031.12
2019-03-27T05:40:01.772Z,1031.12
2019-03-27T05:41:01.981Z,1031.12
2019-03-27T05:42:02.226Z,1031.12
2019-03-27T05:43:02.460Z,1031.22
2019-03-27T05:44:01.649Z,1031.22
2019-03-27T05:45:01.875Z,1031.22
2019-03-27T05:46:02.100Z,1031.22
2019-03-27T05:47:02.420Z,1031.19
2019-03-27T05:48:02.567Z,1031.19
2019-03-27T05:49:01.800Z,1031.19
2019-03-27T05:50:02.148Z,1031.19
2019-03-27T05:51:02.310Z,1031.21
2019-03-27T05:52:02.669Z,1031.21
2019-03-27T05:53:01.797Z,1031.21
2019-03-27T05:54:01.990Z,1031.21
2019-03-27T05:55:02.253Z,1031.3
2019-03-27T05:56:02.423Z,1031.3
2019-03-27T05:57:02.188Z,1031.3
2019-03-27T05:58:02.430Z,1031.3
2019-03-27T05:59:02.101Z,1031.13
2019-03-27T06:00:05.184Z,1031.13
2019-03-27T06:01:02.019Z,1031.13
2019-03-27T06:02:02.307Z,1031.13
2019-03-27T06:03:02.437Z,1031.28
2019-03-27T06:04:01.658Z,1031.28
2019-03-27T06:05:01.989Z,1031.28
2019-03-27T06:06:02.185Z,1031.28
2019-03-27T06:07:02.390Z,1031.4
2019-03-27T06:08:02.582Z,1031.4
2019-03-27T06:09:01.799Z,1031.4
2019-03-27T06:10:02.143Z,1031.4
2019-03-27T06:11:02.354Z,1031.54
2019-03-27T06:12:02.558Z,1031.54
2019-03-27T06:13:01.737Z,1031.54
2019-03-27T06:14:02.029Z,1031.54
2019-03-27T06:15:02.219Z,1031.44
2019-03-27T06:16:02.498Z,1031.44
2019-03-27T06:17:01.649Z,1031.44
2019-03-27T06:18:13.634Z,1031.44
2019-03-27T06:19:02.150Z,1031.49
2019-03-27T06:20:02.371Z,1031.49
2019-03-27T06:21:02.568Z,1031.49
2019-03-27T06:22:02.056Z,1031.49
2019-03-27T06:23:02.038Z,1031.61
2019-03-27T06:24:02.273Z,1031.61
2019-03-27T06:25:02.593Z,1031.61
2019-03-27T06:26:01.663Z,1031.61
2019-03-27T06:27:01.942Z,1031.67
2019-03-27T06:28:02.407Z,1031.67
2019-03-27T06:29:01.623Z,1031.67
2019-03-27T06:30:01.937Z,1031.67
2019-03-27T06:31:02.149Z,1031.67
2019-03-27T06:32:02.348Z,1031.67
2019-03-27T06:33:02.566Z,1031.67
2019-03-27T06:34:01.719Z,1031.67
2019-03-27T06:35:02.056Z,1031.74
2019-03-27T06:36:02.300Z,1031.74
2019-03-27T06:37:02.574Z,1031.74
2019-03-27T06:38:01.745Z,1031.74
2019-03-27T06:39:01.996Z,1031.67
2019-03-27T06:40:02.230Z,1031.67
2019-03-27T06:41:02.341Z,1031.67
2019-03-27T06:42:02.617Z,1031.63
2019-03-27T06:43:01.731Z,1031.63
2019-03-27T06:44:01.985Z,1031.63
2019-03-27T06:45:02.242Z,1031.63
2019-03-27T06:46:02.437Z,1031.72
2019-03-27T06:47:01.652Z,1031.72
2019-03-27T06:48:01.941Z,1031.72
2019-03-27T06:49:02.068Z,1031.72
2019-03-27T06:50:02.330Z,1031.8
2019-03-27T06:51:02.564Z,1031.8
2019-03-27T06:52:01.799Z,1031.8
2019-03-27T06:53:02.559Z,1031.8
2019-03-27T06:54:01.767Z,1031.75
2019-03-27T06:55:01.987Z,1031.75
2019-03-27T06:56:02.182Z,1031.75
2019-03-27T06:57:02.462Z,1031.75
2019-03-27T06:58:02.589Z,1031.85
2019-03-27T06:59:01.836Z,1031.85
2019-03-27T07:00:06.227Z,1031.85
2019-03-27T07:01:02.080Z,1031.85
2019-03-27T07:02:02.417Z,1031.79
2019-03-27T07:03:02.542Z,1031.79
2019-03-27T07:04:11.284Z,1031.79
2019-03-27T11:39:02.020Z,1031.79
2019-03-27T11:40:02.168Z,1033.38
2019-03-27T11:41:02.255Z,1033.38
2019-03-27T11:42:02.416Z,1033.38
2019-03-27T11:43:01.564Z,1033.38
2019-03-27T11:44:01.722Z,1033.38
2019-03-27T11:45:02.260Z,1033.38
2019-03-27T11:46:02.346Z,1033.38
2019-03-27T11:47:02.467Z,1033.38
2019-03-27T11:48:01.620Z,1033.38
2019-03-27T11:49:01.782Z,1033.38
2019-03-27T11:50:02.300Z,1033.38
2019-03-27T11:51:02.239Z,1033.38
2019-03-27T11:52:02.420Z,1033.38
2019-03-27T11:53:01.592Z,1033.38
2019-03-27T11:54:01.765Z,1033.38
2019-03-27T11:55:02.050Z,1033.38
2019-03-27T11:56:03.851Z,1033.38
2019-03-27T11:57:02.265Z,1033.38
2019-03-27T11:58:02.487Z,1033.38
2019-03-27T11:59:01.704Z,1033.38
2019-03-27T12:00:04.060Z,1033.38
2019-03-27T12:01:01.809Z,1033.38
2019-03-27T12:02:01.927Z,1033.38
2019-03-27T12:03:02.116Z,1033.38
2019-03-27T12:04:02.308Z,1033.38
2019-03-27T12:05:02.739Z,1033.38
2019-03-27T12:06:01.845Z,1033.38
2019-03-27T12:07:02.018Z,1033.38
2019-03-27T12:08:02.077Z,1033.38
2019-03-27T12:09:02.263Z,1033.38
2019-03-27T12:10:02.497Z,1033.38
2019-03-27T12:11:01.713Z,1033.38
2019-03-27T12:12:02.566Z,1033.38
2019-03-27T12:13:01.744Z,1033.38
2019-03-27T12:14:01.963Z,1033.38
2019-03-27T12:15:02.154Z,1033.38
2019-03-27T12:16:02.433Z,1033.38
2019-03-27T12:17:02.482Z,1033.38
2019-03-27T12:18:01.616Z,1033.38
2019-03-27T12:19:01.769Z,1033.38
2019-03-27T12:20:01.972Z,1033.38
2019-03-27T12:21:02.157Z,1033.38
2019-03-27T12:22:02.303Z,1033.38
2019-03-27T12:23:02.422Z,1033.38
2019-03-27T12:24:01.706Z,1033.38
2019-03-27T12:25:01.955Z,1033.38
2019-03-27T12:26:02.078Z,1033.38
2019-03-27T12:27:02.433Z,1033.38
2019-03-27T12:28:02.499Z,1033.38
2019-03-27T12:29:01.681Z,1033.38
2019-03-27T12:30:01.995Z,1033.38
2019-03-27T12:31:02.090Z,1033.38
2019-03-27T12:32:02.249Z,1033.38
2019-03-27T12:33:02.425Z,1033.38
2019-03-27T12:34:02.552Z,1033.38
2019-03-27T12:35:01.825Z,1033.38
2019-03-27T12:36:02.041Z,1033.38
2019-03-27T12:37:02.192Z,1033.38
2019-03-27T12:38:04.864Z,1033.38
2019-03-27T12:39:02.514Z,1033.38
2019-03-27T12:40:01.798Z,1033.38
2019-03-27T12:41:01.838Z,1033.38
2019-03-27T12:42:02.009Z,1033.38
2019-03-27T12:43:02.194Z,1033.38
2019-03-27T12:44:03.002Z,1033.38
2019-03-27T12:45:02.815Z,1033.38
2019-03-27T12:46:01.721Z,1033.38
2019-03-27T12:47:01.927Z,1033.38
2019-03-27T12:48:02.303Z,1033.38
2019-03-27T12:49:02.520Z,1033.38
2019-03-27T12:50:01.738Z,1033.38
2019-03-27T12:51:13.555Z,1033.38
2019-03-27T12:52:05.324Z,1033.38
2019-03-27T12:53:02.210Z,1033.38
2019-03-27T12:54:02.477Z,1033.38
2019-03-27T12:55:01.681Z,1033.38
2019-03-27T12:56:01.826Z,1033.38
2019-03-27T12:57:01.995Z,1033.38
2019-03-27T12:58:02.181Z,1033.38
2019-03-27T12:59:02.460Z,1033.38
2019-03-27T13:00:04.751Z,1033.38
2019-03-27T13:01:02.602Z,1033.38
2019-03-27T13:02:01.706Z,1033.38
2019-03-27T13:03:01.822Z,1033.38
2019-03-27T13:04:02.023Z,1033.38
2019-03-27T13:05:02.200Z,1033.38
2019-03-27T13:06:02.060Z,1033.38
2019-03-27T13:07:02.304Z,1033.38
2019-03-27T13:08:02.529Z,1033.38
2019-03-27T13:09:01.598Z,1033.38
2019-03-27T13:10:01.901Z,1033.38
2019-03-27T13:11:02.078Z,1033.38
2019-03-27T13:12:02.310Z,1033.38
2019-03-27T13:13:02.511Z,1033.38
2019-03-27T13:14:01.623Z,1033.38
2019-03-27T13:15:01.878Z,1033.38
2019-03-27T13:16:02.126Z,1033.38
2019-03-27T13:17:02.347Z,1033.38
2019-03-27T13:18:02.568Z,1033.38
2019-03-27T13:19:01.866Z,1033.38
2019-03-27T13:20:02.096Z,1033.38
2019-03-27T13:21:02.090Z,1033.38
2019-03-27T13:22:02.149Z,1033.38
2019-03-27T13:23:02.364Z,1033.38
2019-03-27T13:24:02.485Z,1033.38
2019-03-27T13:25:02.432Z,1033.38
2019-03-27T13:26:02.531Z,1033.38
2019-03-27T13:27:02.481Z,1033.38
2019-03-27T13:28:01.594Z,1033.38
2019-03-27T13:29:01.860Z,1033.38
2019-03-27T13:30:02.642Z,1033.38
2019-03-27T13:31:01.721Z,1033.38
2019-03-27T13:32:01.921Z,1033.38
2019-03-27T13:33:02.176Z,1033.38
2019-03-27T13:34:02.402Z,1033.38
2019-03-27T13:35:02.684Z,1033.38
2019-03-27T13:36:01.760Z,1033.38
2019-03-27T13:37:01.934Z,1033.38
2019-03-27T13:38:02.199Z,1033.38
2019-03-27T13:39:02.233Z,1033.38
2019-03-27T13:40:02.428Z,1033.38
2019-03-27T13:41:02.549Z,1033.38
2019-03-27T13:42:01.720Z,1033.38
2019-03-27T13:43:02.276Z,1033.38
2019-03-27T13:44:02.414Z,1033.38
2019-03-27T13:45:02.479Z,1033.38
2019-03-27T13:46:01.592Z,1033.38
2019-03-27T13:47:02.195Z,1033.38
2019-03-27T13:48:01.963Z,1033.38
2019-03-27T13:49:02.185Z,1033.38
2019-03-27T13:50:02.402Z,1033.38
2019-03-27T13:51:02.519Z,1033.38
2019-03-27T13:52:01.777Z,1033.38
2019-03-27T13:53:01.937Z,1033.38
2019-03-27T13:54:02.127Z,1033.38
2019-03-27T13:55:02.371Z,1033.38
2019-03-27T13:56:02.497Z,1033.43
2019-03-27T13:57:01.734Z,1033.43
2019-03-27T13:58:01.869Z,1033.43
2019-03-27T13:59:02.268Z,1033.43
2019-03-27T14:00:04.385Z,1033.34
2019-03-27T14:01:02.040Z,1033.34
2019-03-27T14:02:02.307Z,1033.34
2019-03-27T14:03:02.489Z,1033.34
2019-03-27T14:04:01.882Z,1033.34
2019-03-27T14:05:02.058Z,1033.34
2019-03-27T14:06:02.163Z,1033.34
2019-03-27T14:07:02.356Z,1033.32
2019-03-27T14:08:02.539Z,1033.32
2019-03-27T14:09:01.733Z,1033.32
2019-03-27T14:10:02.179Z,1033.32
2019-03-27T14:11:02.312Z,1033.39
2019-03-27T14:12:02.541Z,1033.39
2019-03-27T14:13:02.248Z,1033.39
2019-03-27T14:14:12.060Z,1033.39
2019-03-27T14:15:01.746Z,1033.45
2019-03-27T14:16:01.841Z,1033.45
2019-03-27T14:17:02.078Z,1033.45
2019-03-27T14:18:02.165Z,1033.45
2019-03-27T14:19:02.313Z,1033.42
2019-03-27T14:20:02.675Z,1033.42
2019-03-27T14:21:01.815Z,1033.42
2019-03-27T14:22:02.017Z,1033.42
2019-03-27T14:23:02.233Z,1033.41
2019-03-27T14:24:02.476Z,1033.41
2019-03-27T14:25:02.061Z,1033.41
2019-03-27T14:26:01.912Z,1033.41
2019-03-27T14:27:02.056Z,1033.4
2019-03-27T14:28:02.228Z,1033.4
2019-03-27T14:29:02.328Z,1033.4
2019-03-27T14:30:02.662Z,1033.4
2019-03-27T14:31:01.768Z,1033.5
2019-03-27T14:32:02.561Z,1033.5
2019-03-27T14:33:01.726Z,1033.5
2019-03-27T14:34:02.013Z,1033.5
2019-03-27T14:35:02.225Z,1033.5
2019-03-27T14:36:02.483Z,1033.5
2019-03-27T14:37:02.622Z,1033.5
2019-03-27T14:38:01.763Z,1033.5
2019-03-27T14:39:01.895Z,1033.49
2019-03-27T14:40:02.103Z,1033.49
2019-03-27T14:41:02.175Z,1033.49
2019-03-27T14:42:02.455Z,1033.49
2019-03-27T14:43:01.610Z,1033.43
2019-03-27T14:44:01.862Z,1033.43
2019-03-27T14:45:02.157Z,1033.43
2019-03-27T14:46:02.273Z,1033.43
2019-03-27T14:47:02.557Z,1033.55
2019-03-27T14:48:01.711Z,1033.55
2019-03-27T14:49:01.933Z,1033.55
2019-03-27T14:50:02.244Z,1033.55
2019-03-27T14:51:02.395Z,1033.46
2019-03-27T14:52:08.955Z,1033.46
2019-03-27T14:53:01.782Z,1033.46
2019-03-27T14:54:01.980Z,1033.46
2019-03-27T14:55:03.770Z,1033.46
2019-03-27T14:56:02.371Z,1033.46
2019-03-27T14:57:02.593Z,1033.46
2019-03-27T14:58:01.703Z,1033.46
2019-03-27T14:59:01.971Z,1033.45
2019-03-27T15:00:03.688Z,1033.45
2019-03-27T15:01:02.360Z,1033.45
2019-03-27T15:02:02.210Z,1033.45
2019-03-27T15:03:02.382Z,1033.48
2019-03-27T15:04:01.612Z,1033.48
2019-03-27T15:05:01.848Z,1033.48
2019-03-27T15:06:02.001Z,1033.48
2019-03-27T15:07:02.307Z,1033.52
2019-03-27T15:08:04.743Z,1033.52
2019-03-27T15:09:02.613Z,1033.52
2019-03-27T15:10:01.860Z,1033.52
2019-03-27T15:11:02.020Z,1033.47
2019-03-27T15:12:02.226Z,1033.47
2019-03-27T15:13:02.385Z,1033.47
2019-03-27T15:14:01.564Z,1033.47
2019-03-27T15:15:01.926Z,1033.46
2019-03-27T15:16:01.950Z,1033.46
2019-03-27T15:17:02.076Z,1033.46
2019-03-27T15:18:02.257Z,1033.46
2019-03-27T15:19:02.423Z,1033.46
2019-03-27T15:20:01.730Z,1033.46
2019-03-27T15:21:01.788Z,1033.46
2019-03-27T15:22:01.988Z,1033.46
2019-03-27T15:23:02.423Z,1033.46
2019-03-27T15:24:01.707Z,1033.46
2019-03-27T15:25:01.966Z,1033.46
2019-03-27T15:26:02.065Z,1033.46
2019-03-27T15:27:02.316Z,1033.51
2019-03-27T15:28:02.478Z,1033.51
2019-03-27T15:29:01.732Z,1033.51
2019-03-27T15:30:02.003Z,1033.51
2019-03-27T15:31:02.127Z,1033.51
2019-03-27T15:32:02.298Z,1033.51
2019-03-27T15:33:02.628Z,1033.51
2019-03-27T15:34:01.708Z,1033.51
2019-03-27T15:35:01.967Z,1033.46
2019-03-27T15:36:02.159Z,1033.46
2019-03-27T15:37:02.246Z,1033.46
2019-03-27T15:38:02.050Z,1033.46
2019-03-27T15:39:02.255Z,1033.46
2019-03-27T15:40:02.505Z,1033.46
2019-03-27T15:41:01.624Z,1033.46
2019-03-27T15:42:01.896Z,1033.46
2019-03-27T15:43:02.039Z,1033.44
2019-03-27T15:44:01.769Z,1033.44
2019-03-27T15:45:01.980Z,1033.44
2019-03-27T15:46:02.171Z,1033.44
2019-03-27T15:47:02.431Z,1033.45
2019-03-27T15:48:01.841Z,1033.45
2019-03-27T15:49:01.989Z,1033.45
2019-03-27T15:50:01.834Z,1033.45
2019-03-27T15:51:01.905Z,1033.54
2019-03-27T15:52:02.396Z,1033.54
2019-03-27T15:53:02.517Z,1033.54
2019-03-27T15:54:01.749Z,1033.57
2019-03-27T15:55:02.034Z,1033.57
2019-03-27T15:56:02.155Z,1033.57
2019-03-27T15:57:02.404Z,1033.57
2019-03-27T15:58:02.548Z,1033.55
2019-03-27T15:59:01.749Z,1033.55
2019-03-27T16:00:02.146Z,1033.55
2019-03-27T16:01:02.292Z,1033.55
2019-03-27T16:02:02.556Z,1033.43
2019-03-27T16:03:01.673Z,1033.43
2019-03-27T16:04:01.834Z,1033.43
2019-03-27T16:05:02.418Z,1033.43
2019-03-27T16:06:02.136Z,1033.56
2019-03-27T16:07:02.318Z,1033.56
2019-03-27T16:08:02.596Z,1033.56
2019-03-27T16:09:01.754Z,1033.56
2019-03-27T16:10:02.054Z,1033.59
2019-03-27T16:11:02.287Z,1033.59
2019-03-27T16:12:02.480Z,1033.59
2019-03-27T16:13:01.777Z,1033.59
2019-03-27T16:14:01.885Z,1033.68
2019-03-27T16:15:02.213Z,1033.68
2019-03-27T16:16:02.452Z,1033.68
2019-03-27T16:17:14.287Z,1033.68
2019-03-27T16:18:01.847Z,1033.61
2019-03-27T16:19:02.018Z,1033.61
2019-03-27T16:20:02.338Z,1033.61
2019-03-27T16:21:02.628Z,1033.61
2019-03-27T16:22:01.791Z,1033.69
2019-03-27T16:23:01.945Z,1033.69
2019-03-27T16:24:07.182Z,1033.69
2019-03-27T16:25:02.563Z,1033.69
2019-03-27T16:26:01.761Z,1033.68
2019-03-27T16:27:05.320Z,1033.68
2019-03-27T16:28:02.227Z,1033.68
2019-03-27T16:29:02.393Z,1033.68
2019-03-27T16:30:02.628Z,1033.74
2019-03-27T16:31:01.956Z,1033.74
2019-03-27T16:32:02.173Z,1033.74
2019-03-27T16:33:02.373Z,1033.74
2019-03-27T16:34:02.579Z,1033.65
2019-03-27T16:35:02.512Z,1033.65
2019-03-27T16:36:01.637Z,1033.65
2019-03-27T16:37:01.887Z,1033.65
2019-03-27T16:38:02.122Z,1033.68
2019-03-27T16:39:02.356Z,1033.68
2019-03-27T16:40:02.637Z,1033.68
2019-03-27T16:41:01.802Z,1033.68
2019-03-27T16:42:01.959Z,1033.72